createdAt,value
2023-08-12T00:01:51.619Z,23.60
2023-08-12T00:03:54.837Z,23.60
2023-08-12T00:05:57.641Z,23.60
2023-08-12T00:07:59.338Z,23.60
2023-08-12T00:10:04.434Z,23.60
2023-08-12T00:12:06.369Z,23.60
2023-08-12T00:14:08.205Z,23.50
2023-08-12T00:16:10.048Z,23.50
2023-08-12T00:18:11.911Z,23.50
2023-08-12T00:20:14.104Z,23.50
2023-08-12T00:22:16.072Z,23.50
2023-08-12T00:24:18.019Z,23.50
2023-08-12T00:26:19.791Z,23.60
2023-08-12T00:28:21.548Z,23.50
2023-08-12T00:30:23.344Z,23.50
2023-08-12T00:32:25.197Z,23.50
2023-08-12T00:34:26.997Z,23.50
2023-08-12T00:36:29.140Z,23.50
2023-08-12T00:38:30.975Z,23.50
2023-08-12T00:40:32.840Z,23.50
2023-08-12T00:42:34.646Z,23.50
2023-08-12T00:44:36.431Z,23.50
2023-08-12T00:46:41.082Z,23.50
2023-08-12T00:48:42.954Z,23.50
2023-08-12T00:50:46.234Z,23.50
2023-08-12T00:52:50.600Z,23.50
2023-08-12T00:54:52.383Z,23.50
2023-08-12T00:56:54.841Z,23.50
2023-08-12T00:58:56.870Z,23.50
2023-08-12T01:00:58.768Z,23.50
2023-08-12T01:03:02.385Z,23.50
2023-08-12T01:05:04.723Z,23.50
2023-08-12T01:07:06.542Z,23.50
2023-08-12T01:09:08.657Z,23.50
2023-08-12T01:11:30.583Z,23.60
2023-08-12T01:13:53.360Z,23.60
2023-08-12T01:15:58.826Z,23.60
2023-08-12T01:18:02.976Z,23.60
2023-08-12T01:20:09.808Z,23.50
2023-08-12T01:22:13.418Z,23.60
2023-08-12T01:24:15.228Z,23.50
2023-08-12T01:26:17.065Z,23.50
2023-08-12T01:28:18.873Z,23.60
2023-08-12T01:30:22.597Z,23.60
2023-08-12T01:32:57.184Z,23.50
2023-08-12T01:35:07.901Z,23.60
2023-08-12T01:37:14.251Z,23.60
2023-08-12T01:39:17.536Z,23.60
2023-08-12T01:41:20.637Z,23.60
2023-08-12T01:43:22.791Z,23.60
2023-08-12T01:45:24.646Z,23.60
2023-08-12T01:47:26.430Z,23.60
2023-08-12T01:49:28.924Z,23.60
2023-08-12T01:51:31.080Z,23.60
2023-08-12T01:53:32.842Z,23.60
2023-08-12T01:55:35.311Z,23.60
2023-08-12T01:57:37.168Z,23.60
2023-08-12T01:59:40.526Z,23.60
2023-08-12T02:01:42.336Z,23.60
2023-08-12T02:03:44.295Z,23.60
2023-08-12T02:05:46.100Z,23.60
2023-08-12T02:07:47.921Z,23.60
2023-08-12T02:09:49.911Z,23.60
2023-08-12T02:11:51.764Z,23.60
2023-08-12T02:13:53.633Z,23.60
2023-08-12T02:15:55.518Z,23.60
2023-08-12T02:17:58.286Z,23.60
2023-08-12T02:20:00.089Z,23.70
2023-08-12T02:22:05.249Z,23.60
2023-08-12T02:24:07.570Z,23.60
2023-08-12T02:26:09.856Z,23.60
2023-08-12T02:28:11.669Z,23.60
2023-08-12T02:30:13.607Z,23.60
2023-08-12T02:32:15.441Z,23.60
2023-08-12T02:34:17.253Z,23.60
2023-08-12T02:36:19.137Z,23.60
2023-08-12T02:38:20.963Z,23.60
2023-08-12T02:40:22.805Z,23.60
2023-08-12T02:42:24.613Z,23.60
2023-08-12T02:44:26.387Z,23.60
2023-08-12T02:46:28.142Z,23.60
2023-08-12T02:48:29.970Z,23.60
2023-08-12T02:50:31.731Z,23.60
2023-08-12T02:52:33.522Z,23.60
2023-08-12T02:54:35.431Z,23.60
2023-08-12T02:56:37.243Z,23.60
2023-08-12T02:58:38.988Z,23.60
2023-08-12T03:00:46.361Z,23.60
2023-08-12T03:02:48.485Z,23.60
2023-08-12T03:04:50.295Z,23.60
2023-08-12T03:06:52.112Z,23.60
2023-08-12T03:08:53.908Z,23.60
2023-08-12T03:11:02.483Z,23.60
2023-08-12T03:13:05.441Z,23.60
2023-08-12T03:15:08.862Z,23.60
2023-08-12T03:17:11.242Z,23.60
2023-08-12T03:19:13.483Z,23.60
2023-08-12T03:21:15.910Z,23.60
2023-08-12T03:23:18.808Z,23.60
2023-08-12T03:25:20.848Z,23.60
2023-08-12T03:27:22.850Z,23.60
2023-08-12T03:29:25.987Z,23.60
2023-08-12T03:31:28.585Z,23.60
2023-08-12T03:33:30.681Z,23.70
2023-08-12T03:35:32.754Z,23.60
2023-08-12T03:37:35.021Z,23.60
2023-08-12T03:39:36.827Z,23.60
2023-08-12T03:41:38.585Z,23.60
2023-08-12T03:43:41.430Z,23.70
2023-08-12T03:45:45.681Z,23.60
2023-08-12T03:47:50.051Z,23.60
2023-08-12T03:49:53.045Z,23.60
2023-08-12T03:51:54.939Z,23.60
2023-08-12T03:53:57.055Z,23.60
2023-08-12T03:55:58.998Z,23.60
2023-08-12T03:58:01.112Z,23.60
2023-08-12T04:00:05.142Z,23.60
2023-08-12T04:02:16.620Z,23.60
2023-08-12T04:04:18.415Z,23.60
2023-08-12T04:06:20.294Z,23.60
2023-08-12T04:08:24.208Z,23.60
2023-08-12T04:10:26.107Z,23.50
2023-08-12T04:12:28.807Z,23.50
2023-08-12T04:14:31.118Z,23.60
2023-08-12T04:16:32.918Z,23.60
2023-08-12T04:18:34.748Z,23.60
2023-08-12T04:20:37.925Z,23.60
2023-08-12T04:22:39.749Z,23.60
2023-08-12T04:24:41.515Z,23.60
2023-08-12T04:26:43.603Z,23.60
2023-08-12T04:28:45.820Z,23.60
2023-08-12T04:30:49.500Z,23.60
2023-08-12T04:32:52.229Z,23.60
2023-08-12T04:34:54.241Z,23.60
2023-08-12T04:36:56.264Z,23.60
2023-08-12T04:38:58.372Z,23.60
2023-08-12T04:41:00.256Z,23.60
2023-08-12T04:43:02.946Z,23.60
2023-08-12T04:45:05.154Z,23.60
2023-08-12T04:47:08.017Z,23.60
2023-08-12T04:49:12.066Z,23.60
2023-08-12T04:51:14.265Z,23.60
2023-08-12T04:53:16.029Z,23.60
2023-08-12T04:55:18.223Z,23.60
2023-08-12T04:57:20.007Z,23.60
2023-08-12T04:59:21.985Z,23.60
2023-08-12T05:01:23.904Z,23.60
2023-08-12T05:03:26.842Z,23.50
2023-08-12T05:05:29.162Z,23.60
2023-08-12T05:07:32.404Z,23.50
2023-08-12T05:09:34.240Z,23.60
2023-08-12T05:11:36.029Z,23.50
2023-08-12T05:13:37.892Z,23.60
2023-08-12T05:15:40.741Z,23.60
2023-08-12T05:17:42.647Z,23.60
2023-08-12T05:19:46.472Z,23.60
2023-08-12T05:21:48.240Z,23.60
2023-08-12T05:23:50.134Z,23.60
2023-08-12T05:25:54.435Z,23.60
2023-08-12T05:27:57.245Z,23.60
2023-08-12T05:29:59.071Z,23.60
2023-08-12T05:32:00.905Z,23.60
2023-08-12T05:34:02.738Z,23.60
2023-08-12T05:36:04.738Z,23.60
2023-08-12T05:38:06.537Z,23.60
2023-08-12T05:40:10.663Z,23.70
2023-08-12T05:42:12.712Z,23.60
2023-08-12T05:44:14.869Z,23.70
2023-08-12T05:46:16.746Z,23.70
2023-08-12T05:48:18.617Z,23.70
2023-08-12T05:50:20.416Z,23.70
2023-08-12T05:52:22.266Z,23.70
2023-08-12T05:54:24.044Z,23.70
2023-08-12T05:56:25.952Z,23.70
2023-08-12T05:58:27.749Z,23.70
2023-08-12T06:00:29.961Z,23.70
2023-08-12T06:02:32.479Z,23.70
2023-08-12T06:04:34.341Z,23.70
2023-08-12T06:06:36.124Z,23.70
2023-08-12T06:08:37.947Z,23.70
2023-08-12T06:10:40.825Z,23.70
2023-08-12T06:12:42.676Z,23.80
2023-08-12T06:14:44.466Z,23.80
2023-08-12T06:16:46.258Z,23.80
2023-08-12T06:18:48.462Z,23.80
2023-08-12T06:20:50.271Z,23.80
2023-08-12T06:22:52.580Z,23.80
2023-08-12T06:24:54.469Z,23.80
2023-08-12T06:26:56.256Z,23.80
2023-08-12T06:28:58.131Z,23.80
2023-08-12T06:30:59.967Z,23.80
2023-08-12T06:33:01.783Z,23.80
2023-08-12T06:35:04.007Z,23.80
2023-08-12T06:37:05.866Z,23.80
2023-08-12T06:39:07.618Z,23.90
2023-08-12T06:41:09.405Z,23.90
2023-08-12T06:43:11.624Z,23.90
2023-08-12T06:45:13.506Z,23.90
2023-08-12T06:47:17.493Z,23.90
2023-08-12T06:49:28.762Z,23.90
2023-08-12T06:51:39.851Z,24.00
2023-08-12T06:53:41.658Z,24.00
2023-08-12T06:55:46.898Z,24.00
2023-08-12T06:57:48.744Z,24.00
2023-08-12T06:59:50.768Z,24.10
2023-08-12T07:01:52.564Z,24.10
2023-08-12T07:03:54.414Z,24.10
2023-08-12T07:05:56.312Z,24.10
2023-08-12T07:07:58.073Z,24.10
2023-08-12T07:09:59.842Z,24.20
2023-08-12T07:12:02.677Z,24.20
2023-08-12T07:14:04.724Z,24.20
2023-08-12T07:16:06.634Z,24.30
2023-08-12T07:18:08.677Z,24.30
2023-08-12T07:20:10.778Z,24.30
2023-08-12T07:22:14.670Z,24.40
2023-08-12T07:26:51.907Z,24.40
2023-08-12T07:29:13.486Z,24.50
2023-08-12T07:31:15.480Z,24.50
2023-08-12T07:33:17.620Z,24.50
2023-08-12T07:35:19.434Z,24.60
2023-08-12T07:37:21.257Z,24.60
2023-08-12T07:39:23.020Z,24.60
2023-08-12T07:44:34.691Z,24.70
2023-08-12T07:49:06.251Z,24.70
2023-08-12T07:51:08.265Z,24.70
2023-08-12T07:53:10.045Z,24.80
2023-08-12T07:55:13.225Z,24.70
2023-08-12T07:57:15.012Z,24.80
2023-08-12T07:59:17.263Z,24.70
2023-08-12T08:01:19.016Z,24.80
2023-08-12T08:03:21.063Z,24.90
2023-08-12T08:05:22.894Z,24.90
2023-08-12T08:07:24.775Z,24.90
2023-08-12T08:09:26.585Z,24.90
2023-08-12T08:11:28.429Z,24.90
2023-08-12T08:13:30.653Z,24.90
2023-08-12T08:15:32.923Z,25.00
2023-08-12T08:17:35.757Z,25.00
2023-08-12T08:19:39.769Z,25.00
2023-08-12T08:21:41.629Z,25.10
2023-08-12T08:23:43.800Z,25.10
2023-08-12T08:25:45.624Z,25.10
2023-08-12T08:27:47.434Z,25.20
2023-08-12T08:29:49.302Z,25.20
2023-08-12T08:31:51.114Z,25.20
2023-08-12T08:33:52.899Z,25.40
2023-08-12T08:35:55.227Z,25.30
2023-08-12T08:37:57.046Z,25.40
2023-08-12T08:39:58.804Z,25.40
2023-08-12T08:42:01.705Z,25.40
2023-08-12T08:44:08.362Z,25.50
2023-08-12T08:46:10.296Z,25.50
2023-08-12T08:48:12.958Z,25.50
2023-08-12T08:50:15.437Z,25.60
2023-08-12T08:52:18.500Z,25.70
2023-08-12T08:54:21.053Z,25.70
2023-08-12T08:56:23.126Z,25.70
2023-08-12T08:58:25.981Z,25.70
2023-08-12T09:00:29.037Z,25.80
2023-08-12T09:02:30.928Z,25.80
2023-08-12T09:04:33.596Z,25.90
2023-08-12T09:06:37.601Z,25.90
2023-08-12T09:08:45.507Z,25.90
2023-08-12T09:10:48.227Z,26.00
2023-08-12T09:12:50.075Z,26.10
2023-08-12T09:14:51.913Z,26.10
2023-08-12T09:16:55.098Z,26.10
2023-08-12T09:18:59.176Z,26.20
2023-08-12T09:21:01.873Z,26.30
2023-08-12T09:23:04.231Z,26.30
2023-08-12T09:25:06.675Z,26.40
2023-08-12T09:27:08.567Z,26.40
2023-08-12T09:29:10.389Z,26.40
2023-08-12T09:31:25.286Z,26.40
2023-08-12T09:33:30.080Z,26.50
2023-08-12T09:35:45.470Z,26.60
2023-08-12T09:37:47.458Z,26.60
2023-08-12T09:39:49.969Z,26.60
2023-08-12T09:41:52.641Z,26.70
2023-08-12T09:43:54.492Z,26.80
2023-08-12T09:45:59.936Z,26.80
2023-08-12T09:48:02.321Z,26.90
2023-08-12T09:50:04.428Z,26.90
2023-08-12T09:52:07.841Z,26.90
2023-08-12T09:54:13.831Z,27.00
2023-08-12T09:56:21.666Z,27.00
2023-08-12T09:58:25.263Z,27.10
2023-08-12T10:00:27.159Z,27.10
2023-08-12T10:02:29.612Z,27.10
2023-08-12T10:04:45.771Z,27.20
2023-08-12T10:06:48.914Z,27.30
2023-08-12T10:08:51.688Z,27.30
2023-08-12T10:11:07.110Z,27.30
2023-08-12T10:13:11.107Z,27.40
2023-08-12T10:15:13.070Z,27.50
2023-08-12T10:19:18.139Z,27.60
2023-08-12T10:21:20.096Z,27.70
2023-08-12T10:23:23.489Z,27.70
2023-08-12T10:25:29.938Z,27.80
2023-08-12T10:27:31.980Z,27.90
2023-08-12T10:29:33.769Z,28.00
2023-08-12T10:31:35.755Z,28.00
2023-08-12T10:33:42.151Z,28.10
2023-08-12T10:35:46.421Z,28.10
2023-08-12T10:37:51.686Z,28.20
2023-08-12T10:39:54.892Z,28.20
2023-08-12T10:41:57.382Z,28.30
2023-08-12T10:44:06.170Z,28.30
2023-08-12T10:46:23.464Z,28.30
2023-08-12T10:48:26.373Z,28.30
2023-08-12T10:50:28.382Z,28.30
2023-08-12T10:52:31.524Z,28.30
2023-08-12T10:54:34.655Z,28.30
2023-08-12T10:57:02.234Z,28.30
2023-08-12T10:59:04.044Z,28.40
2023-08-12T11:01:14.257Z,28.40
2023-08-12T11:03:16.162Z,28.40
2023-08-12T11:05:21.439Z,28.40
2023-08-12T11:07:38.740Z,28.50
2023-08-12T11:09:40.948Z,28.50
2023-08-12T11:11:43.115Z,28.50
2023-08-12T11:14:12.699Z,28.60
2023-08-12T11:16:14.542Z,28.60
2023-08-12T11:18:21.443Z,28.60
2023-08-12T11:20:23.486Z,28.50
2023-08-12T11:22:25.963Z,28.50
2023-08-12T11:24:32.874Z,28.50
2023-08-12T11:26:34.717Z,28.50
2023-08-12T11:28:38.936Z,28.50
2023-08-12T11:30:43.457Z,28.40
2023-08-12T11:32:49.213Z,28.40
2023-08-12T11:34:51.081Z,28.30
2023-08-12T11:36:52.960Z,28.20
2023-08-12T11:38:54.790Z,28.10
2023-08-12T11:40:56.601Z,28.00
2023-08-12T11:42:58.612Z,28.00
2023-08-12T11:45:00.558Z,27.80
2023-08-12T11:47:02.428Z,27.70
2023-08-12T11:49:04.354Z,27.60
2023-08-12T11:51:06.366Z,27.60
2023-08-12T11:53:08.269Z,27.50
2023-08-12T11:55:10.569Z,27.30
2023-08-12T11:57:12.440Z,27.30
2023-08-12T11:59:14.397Z,27.20
2023-08-12T12:01:16.735Z,27.10
2023-08-12T12:03:19.118Z,27.00
2023-08-12T12:05:25.189Z,26.90
2023-08-12T12:07:28.302Z,26.90
2023-08-12T12:09:30.569Z,26.80
2023-08-12T12:11:35.250Z,26.70
2023-08-12T12:13:37.122Z,26.70
2023-08-12T12:15:45.172Z,26.60
2023-08-12T12:17:50.363Z,26.50
2023-08-12T12:20:00.934Z,26.50
2023-08-12T12:22:06.273Z,26.50
2023-08-12T12:24:11.326Z,26.40
2023-08-12T12:26:13.501Z,26.40
2023-08-12T12:28:15.380Z,26.40
2023-08-12T12:30:17.801Z,26.40
2023-08-12T12:32:21.068Z,26.40
2023-08-12T12:34:23.733Z,26.40
2023-08-12T12:36:25.543Z,26.40
2023-08-12T12:38:27.963Z,26.40
2023-08-12T12:40:29.851Z,26.40
2023-08-12T12:42:32.233Z,26.40
2023-08-12T12:44:34.038Z,26.40
2023-08-12T12:46:36.447Z,26.50
2023-08-12T12:48:38.227Z,26.40
2023-08-12T12:50:40.220Z,26.50
2023-08-12T12:52:44.683Z,26.50
2023-08-12T12:54:46.944Z,26.60
2023-08-12T12:56:49.170Z,26.60
2023-08-12T12:58:51.072Z,26.60
2023-08-12T13:00:52.896Z,26.70
2023-08-12T13:02:54.833Z,26.80
2023-08-12T13:04:56.914Z,26.80
2023-08-12T13:06:58.821Z,26.80
2023-08-12T13:09:00.699Z,26.80
2023-08-12T13:11:02.515Z,26.80
2023-08-12T13:13:04.482Z,26.90
2023-08-12T13:15:08.077Z,26.80
2023-08-12T13:17:09.963Z,26.80
2023-08-12T13:19:11.733Z,26.80
2023-08-12T13:21:13.658Z,26.80
2023-08-12T13:23:16.186Z,26.80
2023-08-12T13:25:18.156Z,26.70
2023-08-12T13:27:19.950Z,26.70
2023-08-12T13:29:21.767Z,26.70
2023-08-12T13:31:23.699Z,26.70
2023-08-12T13:33:25.531Z,26.60
2023-08-12T13:35:27.403Z,26.60
2023-08-12T13:37:29.209Z,26.60
2023-08-12T13:39:31.048Z,26.60
2023-08-12T13:41:32.788Z,26.60
2023-08-12T13:43:34.672Z,26.60
2023-08-12T13:45:37.227Z,26.60
2023-08-12T13:47:39.180Z,26.60
2023-08-12T13:49:41.047Z,26.60
2023-08-12T13:51:43.371Z,26.60
2023-08-12T13:53:45.122Z,26.60
2023-08-12T13:55:46.896Z,26.60
2023-08-12T13:57:48.729Z,26.60
2023-08-12T13:59:50.663Z,26.60
2023-08-12T14:01:52.731Z,26.60
2023-08-12T14:03:54.494Z,26.60
2023-08-12T14:05:56.353Z,26.60
2023-08-12T14:07:58.187Z,26.60
2023-08-12T14:10:00.750Z,26.60
2023-08-12T14:12:02.553Z,26.60
2023-08-12T14:14:05.092Z,26.60
2023-08-12T14:16:07.249Z,26.50
2023-08-12T14:18:09.354Z,26.50
2023-08-12T14:20:12.059Z,26.50
2023-08-12T14:22:14.132Z,26.50
2023-08-12T14:24:16.127Z,26.40
2023-08-12T14:26:17.965Z,26.40
2023-08-12T14:28:20.155Z,26.50
2023-08-12T14:30:25.649Z,26.50
2023-08-12T14:32:27.408Z,26.50
2023-08-12T14:34:29.169Z,26.50
2023-08-12T14:36:30.980Z,26.50
2023-08-12T14:38:33.954Z,26.50
2023-08-12T14:40:35.846Z,26.50
2023-08-12T14:42:37.677Z,26.50
2023-08-12T14:44:40.326Z,26.50
2023-08-12T14:46:42.698Z,26.50
2023-08-12T14:48:44.457Z,26.50
2023-08-12T14:50:46.315Z,26.60
2023-08-12T14:52:48.095Z,26.60
2023-08-12T14:54:49.925Z,26.50
2023-08-12T14:56:51.776Z,26.60
2023-08-12T14:58:53.554Z,26.50
2023-08-12T15:00:55.473Z,26.50
2023-08-12T15:02:57.379Z,26.50
2023-08-12T15:05:01.125Z,26.50
2023-08-12T15:07:03.040Z,26.50
2023-08-12T15:09:05.925Z,26.40
2023-08-12T15:11:07.838Z,26.40
2023-08-12T15:13:09.660Z,26.40
2023-08-12T15:15:11.479Z,26.40
2023-08-12T15:17:13.411Z,26.40
2023-08-12T15:19:15.480Z,26.40
2023-08-12T15:21:17.319Z,26.40
2023-08-12T15:23:21.964Z,26.40
2023-08-12T15:25:23.828Z,26.30
2023-08-12T15:27:25.749Z,26.30
2023-08-12T15:29:27.693Z,26.30
2023-08-12T15:31:29.937Z,26.30
2023-08-12T15:33:31.760Z,26.30
2023-08-12T15:35:33.792Z,26.20
2023-08-12T15:37:42.458Z,26.20
2023-08-12T15:39:47.258Z,26.30
2023-08-12T15:42:14.667Z,26.20
2023-08-12T15:44:16.735Z,26.30
2023-08-12T15:46:26.504Z,26.20
2023-08-12T15:48:35.169Z,26.20
2023-08-12T15:53:43.197Z,26.20
2023-08-12T15:55:45.653Z,26.20
2023-08-12T15:57:47.762Z,26.10
2023-08-12T15:59:50.050Z,26.10
2023-08-12T16:01:52.547Z,26.10
2023-08-12T16:03:54.921Z,26.10
2023-08-12T16:06:05.648Z,26.00
2023-08-12T16:08:18.682Z,26.20
2023-08-12T16:10:20.800Z,26.20
2023-08-12T16:12:25.772Z,26.20
2023-08-12T16:14:36.583Z,26.20
2023-08-12T16:16:40.200Z,26.20
2023-08-12T16:18:51.737Z,26.20
2023-08-12T16:20:53.784Z,26.20
2023-08-12T16:22:55.648Z,26.20
2023-08-12T16:24:57.460Z,26.20
2023-08-12T16:27:00.945Z,26.20
2023-08-12T16:29:02.885Z,26.20
2023-08-12T16:31:04.773Z,26.20
2023-08-12T16:33:06.792Z,26.20
2023-08-12T16:35:09.003Z,26.20
2023-08-12T16:37:20.980Z,26.20
2023-08-12T16:39:23.701Z,26.20
2023-08-12T16:41:25.581Z,26.30
2023-08-12T16:43:27.388Z,26.30
2023-08-12T16:45:29.405Z,26.20
2023-08-12T16:47:32.628Z,26.20
2023-08-12T16:49:34.973Z,26.20
2023-08-12T16:51:36.814Z,26.20
2023-08-12T16:53:38.562Z,26.20
2023-08-12T16:55:40.434Z,26.20
2023-08-12T16:57:42.332Z,26.30
2023-08-12T16:59:44.198Z,26.30
2023-08-12T17:01:48.524Z,26.30
2023-08-12T17:03:50.396Z,26.30
2023-08-12T17:05:52.335Z,26.30
2023-08-12T17:07:54.297Z,26.30
2023-08-12T17:09:57.889Z,26.30
2023-08-12T17:12:01.078Z,26.30
2023-08-12T17:14:03.047Z,26.30
2023-08-12T17:16:04.968Z,26.30
2023-08-12T17:18:09.086Z,26.40
2023-08-12T17:20:11.275Z,26.30
2023-08-12T17:22:13.284Z,26.30
2023-08-12T17:24:15.310Z,26.30
2023-08-12T17:26:17.126Z,26.30
2023-08-12T17:28:18.948Z,26.40
2023-08-12T17:30:20.841Z,26.30
2023-08-12T17:32:22.639Z,26.30
2023-08-12T17:34:24.549Z,26.30
2023-08-12T17:36:26.668Z,26.30
2023-08-12T17:38:37.827Z,26.30
2023-08-12T17:40:53.539Z,26.40
2023-08-12T17:42:58.904Z,26.30
2023-08-12T17:45:02.769Z,26.20
2023-08-12T17:47:08.824Z,26.20
2023-08-12T17:49:20.374Z,26.20
2023-08-12T17:51:26.946Z,26.20
2023-08-12T17:53:31.001Z,26.10
2023-08-12T17:55:34.630Z,26.10
2023-08-12T17:57:36.838Z,26.10
2023-08-12T17:59:49.369Z,26.00
2023-08-12T18:01:52.095Z,26.00
2023-08-12T18:03:56.330Z,26.00
2023-08-12T18:06:04.702Z,25.90
2023-08-12T18:08:09.887Z,25.90
2023-08-12T18:10:12.854Z,25.90
2023-08-12T18:12:16.565Z,25.90
2023-08-12T18:14:35.231Z,25.90
2023-08-12T18:16:38.159Z,25.80
2023-08-12T18:19:10.614Z,25.80
2023-08-12T18:21:23.032Z,25.80
2023-08-12T18:23:32.772Z,25.70
2023-08-12T18:25:36.273Z,25.60
2023-08-12T18:27:38.357Z,25.70
2023-08-12T18:29:56.746Z,25.60
2023-08-12T18:32:05.565Z,25.60
2023-08-12T18:34:11.252Z,25.60
2023-08-12T18:36:19.385Z,25.60
2023-08-12T18:38:32.125Z,25.50
2023-08-12T18:40:44.897Z,25.50
2023-08-12T18:42:47.384Z,25.50
2023-08-12T18:44:57.793Z,25.50
2023-08-12T18:47:01.275Z,25.50
2023-08-12T18:49:04.831Z,25.40
2023-08-12T18:51:07.469Z,25.40
2023-08-12T18:53:12.115Z,25.40
2023-08-12T18:55:17.100Z,25.40
2023-08-12T18:57:18.949Z,25.40
2023-08-12T18:59:22.331Z,25.30
2023-08-12T19:01:25.170Z,25.30
2023-08-12T19:03:27.136Z,25.30
2023-08-12T19:05:29.899Z,25.30
2023-08-12T19:07:32.185Z,25.30
2023-08-12T19:09:33.987Z,25.20
2023-08-12T19:11:35.862Z,25.20
2023-08-12T19:13:37.704Z,25.20
2023-08-12T19:15:39.817Z,25.20
2023-08-12T19:17:41.733Z,25.10
2023-08-12T19:19:43.919Z,25.10
2023-08-12T19:21:45.878Z,25.10
2023-08-12T19:23:50.416Z,25.10
2023-08-12T19:25:54.433Z,25.10
2023-08-12T19:28:13.979Z,25.00
2023-08-12T19:30:20.937Z,25.00
2023-08-12T19:32:23.115Z,25.00
2023-08-12T19:34:25.072Z,25.00
2023-08-12T19:36:26.877Z,25.00
2023-08-12T19:38:28.700Z,24.90
2023-08-12T19:40:30.573Z,24.90
2023-08-12T19:42:32.541Z,24.90
2023-08-12T19:44:34.508Z,24.90
2023-08-12T19:46:36.346Z,24.90
2023-08-12T19:48:38.189Z,24.80
2023-08-12T19:50:41.324Z,24.80
2023-08-12T19:52:43.368Z,24.70
2023-08-12T19:54:45.209Z,24.70
2023-08-12T19:56:47.119Z,24.70
2023-08-12T19:58:49.005Z,24.70
2023-08-12T20:00:50.965Z,24.70
2023-08-12T20:02:52.848Z,24.60
2023-08-12T20:04:54.737Z,24.60
2023-08-12T20:06:57.174Z,24.60
2023-08-12T20:09:08.778Z,24.60
2023-08-12T20:12:16.882Z,24.60
2023-08-12T20:14:54.049Z,24.60
2023-08-12T20:17:13.243Z,24.50
2023-08-12T20:19:19.138Z,24.50
2023-08-12T20:21:21.044Z,24.50
2023-08-12T20:23:22.990Z,24.40
2023-08-12T20:25:24.935Z,24.40
2023-08-12T20:27:26.797Z,24.40
2023-08-12T20:29:28.654Z,24.40
2023-08-12T20:31:30.460Z,24.30
2023-08-12T20:33:32.573Z,24.30
2023-08-12T20:35:34.734Z,24.30
2023-08-12T20:37:39.674Z,24.30
2023-08-12T20:39:41.506Z,24.20
2023-08-12T20:41:43.318Z,24.20
2023-08-12T20:43:45.131Z,24.20
2023-08-12T20:45:47.083Z,24.10
2023-08-12T20:47:48.926Z,24.10
2023-08-12T20:49:50.787Z,24.10
2023-08-12T20:51:52.789Z,24.10
2023-08-12T20:53:54.935Z,24.10
2023-08-12T20:55:57.050Z,24.10
2023-08-12T20:57:59.133Z,24.00
2023-08-12T21:00:03.009Z,24.00
2023-08-12T21:02:16.862Z,24.00
2023-08-12T21:04:36.123Z,23.90
2023-08-12T21:06:44.402Z,23.90
2023-08-12T21:08:46.908Z,23.90
2023-08-12T21:10:53.666Z,23.90
2023-08-12T21:12:55.913Z,23.80
2023-08-12T21:14:58.016Z,23.80
2023-08-12T21:17:00.207Z,23.70
2023-08-12T21:19:02.324Z,23.80
2023-08-12T21:21:04.485Z,23.80
2023-08-12T21:23:14.173Z,23.80
2023-08-12T21:25:16.874Z,23.70
2023-08-12T21:27:52.832Z,23.70
2023-08-12T21:30:24.836Z,23.70
2023-08-12T21:35:08.039Z,23.70
2023-08-12T21:37:09.850Z,23.70
2023-08-12T21:41:59.579Z,23.60
2023-08-12T21:44:01.372Z,23.60
2023-08-12T21:46:03.293Z,23.60
2023-08-12T21:48:05.652Z,23.60
2023-08-12T21:50:08.166Z,23.50
2023-08-12T21:52:15.404Z,23.50
2023-08-12T21:54:18.040Z,23.50
2023-08-12T21:56:20.322Z,23.50
2023-08-12T21:58:22.119Z,23.40
2023-08-12T22:00:24.375Z,23.40
2023-08-12T22:02:27.780Z,23.40
2023-08-12T22:04:36.808Z,23.40
2023-08-12T22:06:38.704Z,23.40
2023-08-12T22:08:40.539Z,23.40
2023-08-12T22:10:59.502Z,23.40
2023-08-12T22:13:01.306Z,23.40
2023-08-12T22:15:03.221Z,23.40
2023-08-12T22:17:05.245Z,23.30
2023-08-12T22:19:07.097Z,23.30
2023-08-12T22:21:10.352Z,23.30
2023-08-12T22:23:12.216Z,23.30
2023-08-12T22:25:14.956Z,23.30
2023-08-12T22:27:16.913Z,23.30
2023-08-12T22:29:20.083Z,23.30
2023-08-12T22:31:21.909Z,23.30
2023-08-12T22:33:23.808Z,23.20
2023-08-12T22:35:27.378Z,23.20
2023-08-12T22:37:33.043Z,23.20
2023-08-12T22:39:38.187Z,23.20
2023-08-12T22:41:46.428Z,23.20
2023-08-12T22:44:13.753Z,23.20
2023-08-12T22:46:21.168Z,23.10
2023-08-12T22:48:25.381Z,23.20
2023-08-12T22:50:27.284Z,23.20
2023-08-12T22:52:32.824Z,23.20
2023-08-12T22:54:37.112Z,23.20
2023-08-12T22:56:56.464Z,23.20
2023-08-12T23:01:20.783Z,23.10
2023-08-12T23:03:23.011Z,23.10
2023-08-12T23:05:24.826Z,23.10
2023-08-12T23:07:27.384Z,23.10
2023-08-12T23:09:29.210Z,23.10
2023-08-12T23:11:31.352Z,23.10
2023-08-12T23:13:33.259Z,23.10
2023-08-12T23:15:35.336Z,23.10
2023-08-12T23:17:37.481Z,23.10
2023-08-12T23:19:39.294Z,23.10
2023-08-12T23:21:43.831Z,23.00
2023-08-12T23:23:45.684Z,23.10
2023-08-12T23:25:47.504Z,23.10
2023-08-12T23:27:49.245Z,23.20
2023-08-12T23:29:51.047Z,23.10
2023-08-12T23:31:52.866Z,23.00
2023-08-12T23:33:54.630Z,23.00
2023-08-12T23:35:56.441Z,23.00
2023-08-12T23:38:00.941Z,23.00
2023-08-12T23:40:03.226Z,23.00
2023-08-12T23:42:05.185Z,23.00
2023-08-12T23:44:07.084Z,23.00
2023-08-12T23:46:08.906Z,23.10
2023-08-12T23:48:10.837Z,23.10
2023-08-12T23:50:12.835Z,23.00
2023-08-12T23:52:14.910Z,23.00
2023-08-12T23:54:16.854Z,23.00
2023-08-12T23:56:18.854Z,23.00
2023-08-12T23:58:20.646Z,23.00
